Time;durP1;ratioP1;P1;durP2;ratioP2;P2;SDS_P1;SDS_P2;PMS_P1;PMS_P2;Temp;Humidity;BMP_temperature;BMP_pressure;BME280_temperature;BME280_humidity;BME280_pressure;Samples;Min_cycle;Max_cycle;Signal;HPM_P1;HPM_P2
2024/01/03 00:00:25;;;;;;;0.93;0.77;;;9.80;99.90;;;;;;5041723;28;20227;-94
2024/01/03 00:02:51;;;;;;;1.90;1.13;;;9.70;99.90;;;;;;5041629;28;20221;-95
2024/01/03 00:05:39;;;;;;;3.73;0.60;;;9.80;99.90;;;;;;5042950;28;20174;-94
2024/01/03 00:08:36;;;;;;;0.20;0.20;;;9.80;99.90;;;;;;5042483;28;20202;-92
2024/01/03 00:11:02;;;;;;;0.23;0.20;;;9.60;99.90;;;;;;5041018;28;20210;-93
2024/01/03 00:13:31;;;;;;;3.20;1.20;;;9.70;99.90;;;;;;5023832;28;20289;-93
2024/01/03 00:16:09;;;;;;;0.17;0.17;;;9.80;99.90;;;;;;5058260;28;20228;-93
2024/01/03 00:18:45;;;;;;;4.13;0.80;;;9.80;99.90;;;;;;5055950;28;20251;-93
2024/01/03 00:21:27;;;;;;;0.87;0.77;;;9.60;99.90;;;;;;5039610;28;20214;-95
2024/01/03 00:23:59;;;;;;;2.13;0.80;;;9.70;99.90;;;;;;5039950;28;20222;-95
2024/01/03 00:26:27;;;;;;;0.60;0.47;;;9.50;99.90;;;;;;5058626;28;20186;-95
2024/01/03 00:28:54;;;;;;;1.00;0.83;;;9.60;99.90;;;;;;5058132;28;20297;-95
2024/01/03 00:31:44;;;;;;;0.93;0.73;;;9.60;99.90;;;;;;5041625;28;20569;-93
2024/01/03 00:34:39;;;;;;;0.33;0.33;;;9.60;99.90;;;;;;5020365;28;20218;-95
2024/01/03 00:37:27;;;;;;;0.73;0.70;;;9.50;99.90;;;;;;5063200;28;20413;-95
2024/01/03 00:39:57;;;;;;;2.57;0.93;;;9.60;99.90;;;;;;5044009;28;20242;-95
2024/01/03 00:42:23;;;;;;;4.63;0.40;;;9.70;99.90;;;;;;5025327;28;20308;-94
2024/01/03 00:44:52;;;;;;;3.67;0.63;;;9.70;99.90;;;;;;5041800;28;20242;-95
2024/01/03 00:47:19;;;;;;;0.60;0.60;;;9.60;99.90;;;;;;5058896;28;20182;-96
2024/01/03 00:49:49;;;;;;;4.03;0.87;;;9.50;99.90;;;;;;5060537;28;20244;-93
2024/01/03 00:52:15;;;;;;;0.97;0.70;;;9.60;99.90;;;;;;5044680;28;20241;-94
2024/01/03 00:54:42;;;;;;;1.73;1.20;;;9.60;99.90;;;;;;5043957;28;20230;-93
2024/01/03 00:57:08;;;;;;;1.33;0.63;;;9.60;99.90;;;;;;5043729;28;20222;-94
2024/01/03 00:59:35;;;;;;;8.40;2.47;;;9.60;99.90;;;;;;5042614;28;20626;-94
2024/01/03 01:02:02;;;;;;;4.20;1.00;;;9.60;99.90;;;;;;5026117;28;20185;-95
2024/01/03 01:04:30;;;;;;;2.13;1.57;;;9.70;99.90;;;;;;5042786;28;20219;-94
2024/01/03 01:06:56;;;;;;;0.97;0.30;;;9.70;99.90;;;;;;5058171;28;20222;-95
2024/01/03 01:09:22;;;;;;;1.23;0.50;;;9.70;99.90;;;;;;5041947;28;20652;-95
2024/01/03 01:11:48;;;;;;;6.27;1.03;;;9.60;99.90;;;;;;5041289;28;20279;-93
2024/01/03 01:14:14;;;;;;;3.87;1.10;;;9.70;99.90;;;;;;5041574;28;20609;-94
2024/01/03 01:16:41;;;;;;;4.13;1.47;;;9.70;99.90;;;;;;5039157;28;20707;-95
2024/01/03 01:19:07;;;;;;;1.47;0.97;;;9.60;99.90;;;;;;5056666;28;20230;-95
2024/01/03 01:21:33;;;;;;;1.20;0.53;;;9.70;99.90;;;;;;5038001;28;20221;-94
2024/01/03 01:23:59;;;;;;;0.20;0.20;;;9.60;99.90;;;;;;5038078;28;20228;-94
2024/01/03 01:26:26;;;;;;;0.40;0.40;;;9.70;99.90;;;;;;5037307;28;20202;-93
2024/01/03 01:28:52;;;;;;;0.83;0.40;;;9.70;99.90;;;;;;5021750;28;20188;-94
2024/01/03 01:31:17;;;;;;;14.90;1.40;;;9.80;99.90;;;;;;5038594;28;20300;-93
2024/01/03 01:33:44;;;;;;;0.40;0.40;;;9.70;99.90;;;;;;5037709;28;20577;-93
2024/01/03 01:36:09;;;;;;;1.80;0.57;;;9.80;99.90;;;;;;5038244;28;20237;-94
2024/01/03 01:38:35;;;;;;;1.63;0.73;;;9.70;99.90;;;;;;5037714;28;20213;-94
2024/01/03 01:41:01;;;;;;;3.20;1.47;;;9.80;99.90;;;;;;5037723;28;20178;-94
2024/01/03 01:43:27;;;;;;;4.03;0.63;;;9.70;99.90;;;;;;5019995;28;20328;-94
2024/01/03 01:45:53;;;;;;;0.40;0.40;;;9.70;99.90;;;;;;5038068;28;20731;-94
2024/01/03 01:48:20;;;;;;;1.77;1.67;;;9.70;99.90;;;;;;5037390;28;20217;-93
2024/01/03 01:50:46;;;;;;;0.20;0.20;;;9.80;99.90;;;;;;5038315;28;20276;-94
2024/01/03 01:53:13;;;;;;;1.70;0.30;;;9.70;99.90;;;;;;5038711;28;20541;-94
2024/01/03 01:55:40;;;;;;;0.73;0.53;;;9.70;99.90;;;;;;5038940;28;20217;-93
2024/01/03 01:58:07;;;;;;;2.47;0.50;;;9.80;99.90;;;;;;5057179;28;20229;-92
2024/01/03 02:00:33;;;;;;;0.10;0.10;;;9.70;99.90;;;;;;5022670;28;20240;-96
2024/01/03 02:03:00;;;;;;;10.03;0.77;;;9.70;99.90;;;;;;5039617;28;20221;-94
2024/01/03 02:05:26;;;;;;;0.43;0.43;;;9.70;99.90;;;;;;5037878;28;20249;-94
2024/01/03 02:07:52;;;;;;;0.93;0.60;;;9.70;99.90;;;;;;5038776;28;20289;-94
2024/01/03 02:10:17;;;;;;;0.20;0.20;;;9.70;99.90;;;;;;5039514;28;20232;-94
2024/01/03 02:12:46;;;;;;;0.83;0.77;;;9.60;99.90;;;;;;5039876;28;20271;-95
2024/01/03 02:15:12;;;;;;;0.40;0.40;;;9.70;99.90;;;;;;5039724;28;20252;-94
2024/01/03 02:17:41;;;;;;;4.87;1.37;;;9.70;99.90;;;;;;5041134;28;20237;-95
2024/01/03 02:20:08;;;;;;;4.73;0.97;;;9.80;99.90;;;;;;5039173;28;20642;-95
2024/01/03 02:22:36;;;;;;;0.30;0.30;;;9.80;99.90;;;;;;5039750;28;20711;-95
2024/01/03 02:25:04;;;;;;;2.37;0.90;;;9.80;99.90;;;;;;5039058;28;20281;-93
2024/01/03 02:27:30;;;;;;;1.53;1.43;;;9.80;99.90;;;;;;5038495;28;20214;-96
2024/01/03 02:29:59;;;;;;;0.20;0.20;;;9.70;99.90;;;;;;5037216;28;20249;-93
2024/01/03 02:32:25;;;;;;;0.77;0.70;;;9.70;99.90;;;;;;5021321;28;20185;-94
2024/01/03 02:34:51;;;;;;;1.83;1.40;;;9.80;99.90;;;;;;5040063;28;20174;-96
2024/01/03 02:37:22;;;;;;;0.57;0.27;;;9.80;99.90;;;;;;5040032;28;20286;-95
2024/01/03 02:39:48;;;;;;;0.67;0.60;;;9.80;99.90;;;;;;5039088;28;20222;-94
2024/01/03 02:42:14;;;;;;;7.53;1.43;;;9.70;99.90;;;;;;5038112;28;20224;-95
2024/01/03 02:44:40;;;;;;;0.30;0.30;;;9.70;99.90;;;;;;5038912;28;20221;-95
2024/01/03 02:47:06;;;;;;;7.77;0.63;;;9.80;99.90;;;;;;5040576;28;20204;-94
2024/01/03 02:49:32;;;;;;;11.23;1.13;;;9.80;99.90;;;;;;5038268;28;20237;-94
2024/01/03 02:52:03;;;;;;;9.37;0.80;;;9.70;99.90;;;;;;5027957;28;20225;-95
2024/01/03 02:54:29;;;;;;;20.37;1.40;;;9.70;99.90;;;;;;5021864;28;20217;-96
2024/01/03 02:56:57;;;;;;;1.13;0.50;;;9.70;99.90;;;;;;5038037;28;20731;-94
2024/01/03 02:59:26;;;;;;;3.20;1.13;;;9.60;99.90;;;;;;5037489;28;20186;-95
2024/01/03 03:01:52;;;;;;;1.20;0.93;;;9.60;99.90;;;;;;5037944;28;20175;-94
2024/01/03 03:04:18;;;;;;;0.23;0.23;;;9.60;99.90;;;;;;5036884;28;20738;-94
2024/01/03 03:06:44;;;;;;;0.20;0.20;;;9.60;99.90;;;;;;5037719;28;20214;-95
2024/01/03 03:09:10;;;;;;;4.60;0.30;;;9.60;99.90;;;;;;5037808;28;20303;-93
2024/01/03 03:11:38;;;;;;;0.20;0.20;;;9.70;99.90;;;;;;5038262;28;20182;-94
2024/01/03 03:14:04;;;;;;;0.50;0.50;;;9.70;99.90;;;;;;5021345;28;20277;-94
2024/01/03 03:16:30;;;;;;;0.30;0.30;;;9.70;99.90;;;;;;5036830;28;20647;-93
2024/01/03 03:18:55;;;;;;;0.27;0.27;;;9.70;99.90;;;;;;5052741;28;20233;-94
2024/01/03 03:21:21;;;;;;;2.23;0.60;;;9.80;99.90;;;;;;5019718;28;20605;-93
2024/01/03 03:23:47;;;;;;;0.60;0.40;;;9.80;99.90;;;;;;5021917;28;20642;-94
2024/01/03 03:26:13;;;;;;;0.83;0.83;;;9.70;99.90;;;;;;5036310;28;20661;-94
2024/01/03 03:28:39;;;;;;;0.47;0.30;;;9.80;99.90;;;;;;5037445;28;20218;-93
2024/01/03 03:31:07;;;;;;;3.73;1.67;;;9.70;99.90;;;;;;5021689;28;20225;-94
2024/01/03 03:33:33;;;;;;;0.50;0.50;;;9.80;99.90;;;;;;5040002;28;20662;-93
2024/01/03 03:35:59;;;;;;;1.13;0.20;;;9.80;99.90;;;;;;5039577;28;20221;-94
2024/01/03 03:38:25;;;;;;;0.57;0.10;;;9.80;99.90;;;;;;5039474;28;20213;-93
2024/01/03 03:40:50;;;;;;;1.23;0.57;;;9.80;99.90;;;;;;5041208;28;20202;-93
2024/01/03 03:43:19;;;;;;;0.07;0.07;;;9.80;99.90;;;;;;5055877;28;20245;-93
2024/01/03 03:45:47;;;;;;;0.30;0.30;;;9.70;99.90;;;;;;5039440;28;20231;-93
2024/01/03 03:48:13;;;;;;;2.93;0.40;;;9.70;99.90;;;;;;5039480;28;20229;-93
2024/01/03 03:50:39;;;;;;;2.80;0.50;;;9.80;99.90;;;;;;5041120;28;20222;-95
2024/01/03 03:53:10;;;;;;;0.60;0.60;;;9.70;99.90;;;;;;5042137;28;20719;-91
2024/01/03 03:55:39;;;;;;;2.23;0.40;;;9.80;99.90;;;;;;5058953;28;20233;-94
2024/01/03 03:58:05;;;;;;;4.80;0.60;;;9.80;99.90;;;;;;5057002;28;20660;-94
2024/01/03 04:00:31;;;;;;;0.20;0.20;;;9.60;99.90;;;;;;5039508;28;20225;-94
2024/01/03 04:02:57;;;;;;;0.93;0.93;;;9.60;99.90;;;;;;5040192;28;20224;-95
2024/01/03 04:05:23;;;;;;;2.43;0.67;;;9.70;99.90;;;;;;5039933;28;20173;-93
2024/01/03 04:07:49;;;;;;;1.70;0.87;;;9.70;99.90;;;;;;5040452;28;20174;-93
2024/01/03 04:10:14;;;;;;;1.67;0.33;;;9.80;99.90;;;;;;5039713;28;20272;-94
2024/01/03 04:12:41;;;;;;;0.20;0.20;;;9.90;99.90;;;;;;5056535;28;20297;-95
2024/01/03 04:15:07;;;;;;;0.40;0.40;;;9.80;99.90;;;;;;5040633;28;20218;-95
2024/01/03 04:17:34;;;;;;;3.20;0.40;;;9.80;99.90;;;;;;5040186;28;20244;-92
2024/01/03 04:20:00;;;;;;;2.43;0.77;;;9.90;99.90;;;;;;5039765;28;20189;-94
2024/01/03 04:22:29;;;;;;;0.20;0.20;;;9.90;99.90;;;;;;5038968;28;20229;-94
2024/01/03 04:24:54;;;;;;;0.40;0.40;;;9.90;99.90;;;;;;5039949;28;20210;-94
2024/01/03 04:27:25;;;;;;;1.30;0.50;;;10.00;99.90;;;;;;5056713;28;20224;-96
2024/01/03 04:29:50;;;;;;;1.40;0.50;;;10.00;99.90;;;;;;5040313;28;20244;-93
2024/01/03 04:32:16;;;;;;;1.20;0.20;;;9.90;99.90;;;;;;5057074;28;20178;-93
2024/01/03 04:34:42;;;;;;;0.23;0.23;;;10.00;99.90;;;;;;5022336;28;20263;-94
2024/01/03 04:37:08;;;;;;;0.60;0.60;;;10.10;99.90;;;;;;5038595;28;20232;-93
2024/01/03 04:39:34;;;;;;;0.50;0.50;;;10.00;99.90;;;;;;5039287;28;20278;-93
2024/01/03 04:42:02;;;;;;;0.53;0.40;;;9.90;99.90;;;;;;5038792;28;20228;-93
2024/01/03 04:44:28;;;;;;;0.80;0.80;;;10.00;99.90;;;;;;5037827;28;20222;-95
2024/01/03 04:46:53;;;;;;;0.10;0.10;;;9.90;99.90;;;;;;5057219;28;20186;-94
2024/01/03 04:49:19;;;;;;;0.10;0.10;;;9.90;99.90;;;;;;5055015;28;20690;-93
2024/01/03 04:51:45;;;;;;;2.63;0.50;;;9.80;99.90;;;;;;5057226;28;20679;-92
2024/01/03 04:54:11;;;;;;;0.70;0.70;;;10.00;99.90;;;;;;5040391;28;20217;-93
2024/01/03 04:56:37;;;;;;;3.70;0.60;;;10.00;99.90;;;;;;5041766;28;20182;-92
2024/01/03 04:59:03;;;;;;;0.70;0.70;;;10.00;99.90;;;;;;5023698;28;20221;-95
2024/01/03 05:01:29;;;;;;;0.20;0.20;;;10.00;99.90;;;;;;5038040;28;20218;-92
2024/01/03 05:03:55;;;;;;;8.83;1.07;;;9.90;99.90;;;;;;5038495;28;20657;-93
2024/01/03 05:06:21;;;;;;;1.03;0.50;;;10.00;99.90;;;;;;5037838;28;20355;-94
2024/01/03 05:08:47;;;;;;;0.30;0.30;;;10.00;99.90;;;;;;5037284;28;20225;-94
2024/01/03 05:11:12;;;;;;;2.77;0.60;;;10.00;99.90;;;;;;5038409;28;20174;-92
2024/01/03 05:13:38;;;;;;;2.10;1.40;;;10.00;99.90;;;;;;5055660;28;20244;-93
2024/01/03 05:16:04;;;;;;;0.17;0.17;;;10.00;99.90;;;;;;5054242;28;20222;-92
2024/01/03 05:18:30;;;;;;;3.30;1.17;;;9.90;99.90;;;;;;5039249;28;20299;-94
2024/01/03 05:20:56;;;;;;;0.23;0.23;;;9.80;99.90;;;;;;5037448;28;20719;-94
2024/01/03 05:23:22;;;;;;;0.60;0.57;;;9.80;99.90;;;;;;5021050;28;20182;-93
2024/01/03 05:25:47;;;;;;;0.20;0.20;;;9.80;99.90;;;;;;5037675;28;20185;-93
2024/01/03 05:28:13;;;;;;;0.70;0.70;;;9.80;99.90;;;;;;5029550;28;20272;-93
2024/01/03 05:30:40;;;;;;;1.40;0.43;;;9.80;99.90;;;;;;5021094;28;20233;-94
2024/01/03 05:33:06;;;;;;;0.30;0.30;;;9.90;99.90;;;;;;5037617;28;20226;-93
2024/01/03 05:35:32;;;;;;;0.87;0.67;;;9.80;99.90;;;;;;5054143;28;20182;-94
2024/01/03 05:37:58;;;;;;;0.10;0.10;;;9.80;99.90;;;;;;5020490;28;20202;-93
2024/01/03 05:40:24;;;;;;;0.23;0.23;;;9.70;99.90;;;;;;5037147;28;20224;-93
2024/01/03 05:42:51;;;;;;;2.10;1.90;;;9.80;99.90;;;;;;5053686;28;20242;-91
2024/01/03 05:45:16;;;;;;;0.30;0.30;;;9.80;99.90;;;;;;5019411;28;20213;-93
2024/01/03 05:47:43;;;;;;;0.10;0.10;;;9.70;99.90;;;;;;5036182;28;20773;-92
2024/01/03 05:50:10;;;;;;;2.77;2.67;;;9.80;99.90;;;;;;5037763;28;20216;-93
2024/01/03 05:52:36;;;;;;;0.20;0.20;;;9.80;99.90;;;;;;5037412;28;20633;-94
2024/01/03 05:55:02;;;;;;;0.00;0.00;;;9.70;99.90;;;;;;5053512;28;20214;-94
2024/01/03 05:57:28;;;;;;;2.83;0.47;;;9.70;99.90;;;;;;5037052;28;20564;-95
2024/01/03 05:59:54;;;;;;;0.10;0.10;;;9.70;99.90;;;;;;5036838;28;20217;-94
2024/01/03 06:02:20;;;;;;;0.20;0.20;;;9.70;99.90;;;;;;5036180;28;20174;-91
2024/01/03 06:04:47;;;;;;;0.47;0.30;;;9.60;99.90;;;;;;5037147;28;20253;-93
2024/01/03 06:07:13;;;;;;;0.77;0.63;;;9.70;99.90;;;;;;5053218;28;20218;-93
2024/01/03 06:09:39;;;;;;;0.10;0.10;;;9.70;99.90;;;;;;5036309;28;20232;-93
2024/01/03 06:12:08;;;;;;;3.63;0.93;;;9.80;99.90;;;;;;5036876;28;20218;-92
2024/01/03 06:14:35;;;;;;;8.73;0.97;;;9.60;99.90;;;;;;5036307;28;20178;-95
2024/01/03 06:17:01;;;;;;;0.27;0.27;;;9.60;99.90;;;;;;5036946;28;20212;-94
2024/01/03 06:19:27;;;;;;;2.77;0.40;;;9.60;99.90;;;;;;5036197;28;20205;-92
2024/01/03 06:21:53;;;;;;;1.03;0.63;;;9.70;99.90;;;;;;5037041;28;20296;-94
2024/01/03 06:24:18;;;;;;;2.40;1.03;;;9.80;99.90;;;;;;5039220;28;20276;-94
2024/01/03 06:26:44;;;;;;;0.70;0.70;;;9.80;99.90;;;;;;5037623;28;20225;-94
2024/01/03 06:29:10;;;;;;;0.13;0.13;;;9.80;99.90;;;;;;5036531;28;20244;-94
2024/01/03 06:31:36;;;;;;;2.50;1.20;;;9.90;99.90;;;;;;5036052;28;20218;-92
2024/01/03 06:34:02;;;;;;;1.70;0.57;;;9.70;99.90;;;;;;5035846;28;20214;-91
2024/01/03 06:36:28;;;;;;;0.50;0.37;;;9.90;99.90;;;;;;5035911;28;20226;-93
2024/01/03 06:38:53;;;;;;;0.67;0.67;;;9.80;99.90;;;;;;5035418;28;20222;-93
2024/01/03 06:41:19;;;;;;;7.07;1.60;;;9.80;99.90;;;;;;5019397;28;20277;-94
2024/01/03 06:43:45;;;;;;;0.77;0.77;;;9.80;99.90;;;;;;5054392;28;20606;-94
2024/01/03 06:46:11;;;;;;;4.27;1.73;;;9.80;99.90;;;;;;5020523;28;20319;-93
2024/01/03 06:48:37;;;;;;;1.63;1.53;;;9.80;99.90;;;;;;5036717;28;20214;-93
2024/01/03 06:51:04;;;;;;;0.80;0.80;;;9.90;99.90;;;;;;5036057;28;20316;-93
2024/01/03 06:53:37;;;;;;;7.07;1.33;;;9.80;99.90;;;;;;5036737;28;20174;-93
2024/01/03 06:56:03;;;;;;;1.23;1.23;;;9.90;99.90;;;;;;5036261;28;20190;-94
2024/01/03 06:58:31;;;;;;;1.60;0.50;;;9.80;99.90;;;;;;5035819;28;20234;-92
2024/01/03 07:00:56;;;;;;;8.77;0.67;;;9.90;99.90;;;;;;5035369;28;20228;-94
2024/01/03 07:03:22;;;;;;;0.70;0.70;;;9.80;99.90;;;;;;5035532;28;20297;-93
2024/01/03 07:05:48;;;;;;;0.70;0.70;;;9.80;99.90;;;;;;5020310;28;20634;-93
2024/01/03 07:08:14;;;;;;;0.50;0.50;;;9.80;99.90;;;;;;5024119;28;20280;-92
2024/01/03 07:10:51;;;;;;;1.40;1.13;;;10.00;99.90;;;;;;5038911;28;20217;-93
2024/01/03 07:13:17;;;;;;;4.23;1.30;;;10.00;99.90;;;;;;5056229;28;20218;-93
2024/01/03 07:15:44;;;;;;;5.00;0.77;;;10.00;99.90;;;;;;5039034;28;20277;-93
2024/01/03 07:18:10;;;;;;;3.03;0.60;;;9.90;99.90;;;;;;5038997;28;20282;-94
2024/01/03 07:20:35;;;;;;;0.60;0.60;;;9.90;99.90;;;;;;5055804;28;20554;-93
2024/01/03 07:23:01;;;;;;;1.03;0.93;;;9.90;99.90;;;;;;5039556;28;20618;-92
2024/01/03 07:25:27;;;;;;;1.40;1.40;;;10.00;99.90;;;;;;5021630;28;20228;-92
2024/01/03 07:27:53;;;;;;;0.37;0.37;;;9.90;99.90;;;;;;5038694;28;20225;-91
2024/01/03 07:30:19;;;;;;;1.30;1.30;;;9.90;99.90;;;;;;5022128;28;20222;-92
2024/01/03 07:32:44;;;;;;;0.67;0.67;;;9.90;99.90;;;;;;5038711;28;20218;-91
2024/01/03 07:35:10;;;;;;;0.10;0.10;;;9.90;99.90;;;;;;5039048;28;20182;-92
2024/01/03 07:37:36;;;;;;;0.50;0.47;;;9.90;99.90;;;;;;5054929;28;20607;-93
2024/01/03 07:40:02;;;;;;;0.73;0.73;;;9.90;99.90;;;;;;5038493;28;20260;-91
2024/01/03 07:42:28;;;;;;;0.73;0.73;;;10.00;99.90;;;;;;5038730;28;20668;-94
2024/01/03 07:44:54;;;;;;;0.30;0.30;;;9.90;99.90;;;;;;5035077;28;20234;-90
2024/01/03 07:47:20;;;;;;;0.20;0.20;;;10.00;99.90;;;;;;5034810;28;20182;-88
2024/01/03 07:49:46;;;;;;;5.53;0.30;;;9.70;99.90;;;;;;5035009;28;20567;-93
2024/01/03 07:52:12;;;;;;;5.27;0.50;;;9.70;99.90;;;;;;5050928;28;20675;-93
2024/01/03 07:54:38;;;;;;;0.57;0.57;;;9.60;99.90;;;;;;5034626;28;20214;-93
2024/01/03 07:57:04;;;;;;;3.57;1.53;;;9.70;99.90;;;;;;5017356;28;20242;-92
2024/01/03 07:59:31;;;;;;;0.10;0.10;;;9.70;99.90;;;;;;5034075;28;20171;-92
2024/01/03 08:01:57;;;;;;;0.30;0.30;;;9.70;99.90;;;;;;5019186;28;20274;-91
2024/01/03 08:04:23;;;;;;;0.20;0.20;;;9.60;99.90;;;;;;5034897;28;20245;-92
2024/01/03 08:06:49;;;;;;;0.10;0.10;;;9.70;99.90;;;;;;5018185;28;20222;-91
2024/01/03 08:09:15;;;;;;;0.97;0.97;;;9.60;99.90;;;;;;5034602;28;20256;-91
2024/01/03 08:11:40;;;;;;;1.07;0.40;;;9.80;99.90;;;;;;5034328;28;20584;-90
2024/01/03 08:14:06;;;;;;;0.87;0.83;;;9.80;99.90;;;;;;5034703;28;20179;-87
2024/01/03 08:16:32;;;;;;;0.57;0.57;;;9.80;99.90;;;;;;5050211;28;20727;-88
2024/01/03 08:18:58;;;;;;;0.67;0.67;;;9.80;99.90;;;;;;5032738;28;20671;-88
2024/01/03 08:21:23;;;;;;;2.63;0.67;;;9.80;99.90;;;;;;5016748;28;20677;-90
2024/01/03 08:23:49;;;;;;;0.20;0.20;;;9.80;99.90;;;;;;5033231;28;20293;-88
2024/01/03 08:26:15;;;;;;;0.73;0.73;;;9.80;99.90;;;;;;5033673;28;20609;-89
2024/01/03 08:28:41;;;;;;;0.10;0.10;;;9.80;99.90;;;;;;5016652;28;20719;-87
2024/01/03 08:31:14;;;;;;;2.83;1.50;;;9.80;99.90;;;;;;5033140;28;20298;-90
2024/01/03 08:33:40;;;;;;;1.13;0.27;;;9.80;99.90;;;;;;5050183;28;20276;-88
2024/01/03 08:36:13;;;;;;;0.47;0.43;;;9.70;99.90;;;;;;5016518;28;20613;-89
2024/01/03 08:38:39;;;;;;;1.23;0.40;;;9.80;99.90;;;;;;5033288;28;20230;-90
2024/01/03 08:41:19;;;;;;;0.53;0.30;;;9.80;99.90;;;;;;5034053;28;20175;-87
2024/01/03 08:43:46;;;;;;;2.37;0.83;;;9.80;99.90;;;;;;5016771;28;20686;-88
2024/01/03 08:46:12;;;;;;;0.10;0.10;;;9.80;99.90;;;;;;5033555;28;20309;-88
2024/01/03 08:48:41;;;;;;;1.20;0.33;;;9.80;99.90;;;;;;5032939;28;20626;-87
2024/01/03 08:51:12;;;;;;;0.67;0.30;;;9.70;99.90;;;;;;5032958;28;20218;-88
2024/01/03 08:53:38;;;;;;;3.60;1.70;;;9.90;99.90;;;;;;5033027;28;20282;-87
2024/01/03 08:56:13;;;;;;;0.23;0.23;;;9.80;99.90;;;;;;5034069;28;20620;-88
2024/01/03 08:58:41;;;;;;;0.20;0.20;;;9.90;99.90;;;;;;5049833;28;20229;-88
2024/01/03 09:01:07;;;;;;;2.33;1.10;;;9.80;99.90;;;;;;5033947;28;20264;-89
2024/01/03 09:03:34;;;;;;;0.30;0.30;;;9.80;99.90;;;;;;5016803;28;20543;-90
2024/01/03 09:06:04;;;;;;;0.20;0.20;;;9.90;99.90;;;;;;5032646;28;20226;-87
2024/01/03 09:08:32;;;;;;;0.40;0.40;;;9.90;99.90;;;;;;5049029;28;20620;-90
2024/01/03 09:10:58;;;;;;;1.47;0.63;;;9.90;99.90;;;;;;5033398;28;20179;-91
2024/01/03 09:13:25;;;;;;;0.67;0.33;;;9.80;99.90;;;;;;5033215;28;20215;-89
2024/01/03 09:15:51;;;;;;;0.73;0.53;;;10.00;99.90;;;;;;5032923;28;20218;-88
2024/01/03 09:18:17;;;;;;;0.30;0.30;;;9.90;99.90;;;;;;5032382;28;20261;-89
2024/01/03 09:20:42;;;;;;;2.57;1.00;;;9.90;99.90;;;;;;5033090;28;20642;-87
2024/01/03 09:23:08;;;;;;;2.80;2.03;;;9.90;99.90;;;;;;5016352;28;20580;-89
2024/01/03 09:25:35;;;;;;;2.37;1.60;;;10.00;99.90;;;;;;5032614;28;20219;-88
2024/01/03 09:28:00;;;;;;;0.70;0.70;;;10.10;99.90;;;;;;5048893;28;20231;-90
2024/01/03 09:30:26;;;;;;;1.80;0.77;;;10.20;99.90;;;;;;5048991;28;20677;-87
2024/01/03 09:32:53;;;;;;;9.80;1.10;;;10.10;99.90;;;;;;5032050;28;20691;-89
2024/01/03 09:35:19;;;;;;;3.20;0.87;;;9.90;99.90;;;;;;5032508;28;20205;-88
2024/01/03 09:37:45;;;;;;;3.17;1.13;;;10.00;99.90;;;;;;5032255;28;20671;-87
2024/01/03 09:40:12;;;;;;;0.30;0.30;;;9.90;99.90;;;;;;5031846;28;20234;-88
2024/01/03 09:42:38;;;;;;;0.40;0.40;;;9.70;99.90;;;;;;5031890;28;20231;-87
2024/01/03 09:45:05;;;;;;;3.07;0.60;;;9.70;99.90;;;;;;5031950;28;20733;-89
2024/01/03 09:47:31;;;;;;;0.47;0.47;;;9.90;99.90;;;;;;5032796;28;20190;-88
2024/01/03 09:49:57;;;;;;;1.60;0.40;;;9.90;99.90;;;;;;5016188;28;20187;-88
2024/01/03 09:52:23;;;;;;;0.90;0.90;;;10.00;99.90;;;;;;5048866;28;20661;-88
2024/01/03 09:54:50;;;;;;;6.60;0.67;;;9.90;99.90;;;;;;5032021;28;20305;-89
2024/01/03 09:57:18;;;;;;;2.23;1.07;;;9.90;99.90;;;;;;5032001;28;20583;-89
2024/01/03 09:59:44;;;;;;;7.40;0.67;;;9.90;99.90;;;;;;5031881;28;20263;-88
2024/01/03 10:02:12;;;;;;;2.03;0.87;;;9.90;99.90;;;;;;5032481;28;20268;-90
2024/01/03 10:04:44;;;;;;;4.70;0.57;;;9.90;99.90;;;;;;5031378;28;20252;-88
2024/01/03 10:07:10;;;;;;;6.30;1.27;;;9.90;99.90;;;;;;5048225;28;20236;-88
2024/01/03 10:09:41;;;;;;;1.67;1.47;;;10.10;99.90;;;;;;5031613;28;20309;-87
2024/01/03 10:12:17;;;;;;;15.20;0.97;;;10.00;99.90;;;;;;5031730;28;20245;-88
2024/01/03 10:14:44;;;;;;;0.70;0.57;;;9.90;99.90;;;;;;5031487;28;20228;-87
2024/01/03 10:17:11;;;;;;;3.07;1.13;;;9.90;99.90;;;;;;5048419;28;20624;-88
2024/01/03 10:19:37;;;;;;;0.80;0.40;;;9.90;99.90;;;;;;5031362;28;20218;-88
2024/01/03 10:22:04;;;;;;;3.60;0.33;;;9.90;99.90;;;;;;5031552;28;20651;-86
2024/01/03 10:24:31;;;;;;;14.30;2.43;;;9.90;99.90;;;;;;5030904;28;20221;-88
2024/01/03 10:27:10;;;;;;;1.90;0.57;;;9.90;99.90;;;;;;5031144;28;20222;-87
2024/01/03 10:29:36;;;;;;;2.67;0.60;;;10.00;99.90;;;;;;5031538;28;20187;-88
2024/01/03 10:32:05;;;;;;;3.60;0.23;;;10.00;99.90;;;;;;5031931;28;20185;-87
2024/01/03 10:34:31;;;;;;;0.30;0.30;;;9.90;99.90;;;;;;5031590;28;20218;-87
2024/01/03 10:36:58;;;;;;;0.10;0.10;;;9.80;99.90;;;;;;5031451;28;20241;-87
2024/01/03 10:39:27;;;;;;;0.40;0.40;;;9.90;99.90;;;;;;5048345;28;20249;-87
2024/01/03 10:41:54;;;;;;;10.93;1.43;;;10.10;99.90;;;;;;5033887;28;20222;-88
2024/01/03 10:44:21;;;;;;;2.10;1.90;;;9.90;99.90;;;;;;5035585;28;20241;-88
2024/01/03 10:46:48;;;;;;;4.13;3.20;;;10.10;99.90;;;;;;5052469;28;20277;-86
2024/01/03 10:49:15;;;;;;;0.70;0.70;;;10.10;99.90;;;;;;5035490;28;20674;-88
2024/01/03 10:51:43;;;;;;;5.13;0.70;;;10.20;99.90;;;;;;5035721;28;20218;-88
2024/01/03 10:54:14;;;;;;;2.70;0.87;;;10.30;99.90;;;;;;5051903;28;20218;-87
2024/01/03 10:56:46;;;;;;;3.90;1.10;;;10.60;99.90;;;;;;5036323;28;20234;-88
2024/01/03 10:59:13;;;;;;;5.33;1.03;;;10.60;99.90;;;;;;5035923;28;20221;-87
2024/01/03 11:02:07;;;;;;;0.50;0.50;;;10.70;99.90;;;;;;5018895;28;20218;-89
2024/01/03 11:04:43;;;;;;;0.90;0.90;;;10.70;99.90;;;;;;5036655;28;20301;-88
2024/01/03 11:07:38;;;;;;;0.73;0.50;;;11.00;99.90;;;;;;5035731;28;20218;-90
2024/01/03 11:10:05;;;;;;;1.03;0.47;;;11.00;99.90;;;;;;5035123;28;20218;-88
2024/01/03 11:12:33;;;;;;;6.70;1.23;;;11.00;99.90;;;;;;5034812;28;20211;-89
2024/01/03 11:15:22;;;;;;;9.73;1.10;;;11.00;99.90;;;;;;5050975;28;20257;-89
2024/01/03 11:17:48;;;;;;;6.73;1.10;;;11.00;99.90;;;;;;5034804;28;20728;-88
2024/01/03 11:20:14;;;;;;;1.03;1.03;;;11.10;99.90;;;;;;5035395;28;20281;-89
2024/01/03 11:22:56;;;;;;;2.47;1.00;;;11.30;99.90;;;;;;5035111;28;20314;-88
2024/01/03 11:25:47;;;;;;;2.93;1.03;;;11.30;99.90;;;;;;5036086;28;20222;-87
2024/01/03 11:28:37;;;;;;;10.23;0.80;;;11.40;99.90;;;;;;5051507;28;20218;-88
2024/01/03 11:31:03;;;;;;;2.73;0.60;;;11.50;99.90;;;;;;5034765;28;20218;-88
2024/01/03 11:33:30;;;;;;;5.70;1.37;;;11.50;99.90;;;;;;5034807;28;20584;-87
2024/01/03 11:35:57;;;;;;;0.50;0.50;;;11.40;99.90;;;;;;5034477;28;20226;-88
2024/01/03 11:38:42;;;;;;;0.67;0.67;;;11.50;99.90;;;;;;5034139;28;20224;-88
2024/01/03 11:41:09;;;;;;;0.40;0.40;;;11.40;99.90;;;;;;5036829;28;20239;-88
2024/01/03 11:43:35;;;;;;;0.20;0.20;;;11.40;99.90;;;;;;5034425;28;20659;-89
2024/01/03 11:46:12;;;;;;;0.33;0.33;;;11.00;99.90;;;;;;5017733;28;20229;-87
2024/01/03 11:48:38;;;;;;;2.57;1.93;;;11.00;99.90;;;;;;5034555;28;20225;-88
2024/01/03 11:51:25;;;;;;;1.70;0.60;;;10.90;99.90;;;;;;5034503;28;20272;-87
2024/01/03 11:53:52;;;;;;;3.83;1.33;;;10.80;99.90;;;;;;5018729;28;20218;-87
2024/01/03 11:56:47;;;;;;;3.60;0.50;;;10.70;99.90;;;;;;5039413;28;20186;-87
2024/01/03 11:59:13;;;;;;;0.50;0.50;;;10.70;99.90;;;;;;5022788;28;20288;-88
2024/01/03 12:01:53;;;;;;;0.97;0.90;;;10.60;99.90;;;;;;5033795;28;20218;-87
2024/01/03 12:04:19;;;;;;;4.87;1.73;;;10.70;99.90;;;;;;5034062;28;20675;-88
2024/01/03 12:06:45;;;;;;;1.60;0.83;;;10.60;99.90;;;;;;5033711;28;20264;-89
2024/01/03 12:09:10;;;;;;;2.90;1.30;;;10.60;99.90;;;;;;5050813;28;20219;-87
2024/01/03 12:11:36;;;;;;;4.43;1.43;;;10.70;99.90;;;;;;5034459;28;20183;-88
2024/01/03 12:14:02;;;;;;;0.97;0.83;;;10.70;99.90;;;;;;5034950;28;20712;-87
2024/01/03 12:16:31;;;;;;;1.13;1.13;;;10.70;99.90;;;;;;5034119;28;20218;-88
2024/01/03 12:18:57;;;;;;;0.87;0.83;;;10.70;99.90;;;;;;5033671;28;20292;-86
2024/01/03 12:21:23;;;;;;;2.93;1.00;;;10.80;99.90;;;;;;5033585;28;20687;-88
2024/01/03 12:24:01;;;;;;;0.40;0.40;;;10.70;99.90;;;;;;5033955;28;20205;-88
2024/01/03 12:26:29;;;;;;;20.37;2.73;;;10.70;99.90;;;;;;5050660;28;20312;-88
2024/01/03 12:29:02;;;;;;;3.47;0.47;;;10.60;99.90;;;;;;5033587;28;20218;-87
2024/01/03 12:31:30;;;;;;;0.50;0.50;;;10.50;99.90;;;;;;5033516;28;20249;-87
2024/01/03 12:34:04;;;;;;;1.03;1.03;;;10.50;99.90;;;;;;5017179;28;20349;-87
2024/01/03 12:36:33;;;;;;;0.60;0.60;;;10.40;99.90;;;;;;5034567;28;20234;-88
2024/01/03 12:38:59;;;;;;;2.93;0.77;;;10.60;99.90;;;;;;5034058;28;20206;-88
2024/01/03 12:41:25;;;;;;;2.17;1.00;;;10.50;99.90;;;;;;5018128;28;20182;-88
2024/01/03 12:43:51;;;;;;;1.47;1.43;;;10.70;99.90;;;;;;5033160;28;20321;-87
2024/01/03 12:46:17;;;;;;;0.30;0.30;;;10.50;99.90;;;;;;5033326;28;20258;-88
2024/01/03 12:48:44;;;;;;;1.20;1.17;;;10.50;99.90;;;;;;5016758;28;20272;-87
2024/01/03 12:51:10;;;;;;;7.60;0.77;;;10.40;99.90;;;;;;5017343;28;20210;-88
2024/01/03 12:53:37;;;;;;;0.97;0.47;;;10.40;99.90;;;;;;5050204;28;20202;-89
2024/01/03 12:56:03;;;;;;;0.47;0.47;;;10.70;99.90;;;;;;5033190;28;20219;-86